sensor_id;sensor_type;location;lat;lon;timestamp;temperature;humidity
49711;DHT22;35602;44.534;18.696;2022-07-23T00:03:54;28.40;48.70
49711;DHT22;35602;44.534;18.696;2022-07-23T00:08:55;28.40;48.80
49711;DHT22;35602;44.534;18.696;2022-07-23T00:13:56;28.40;48.80
49711;DHT22;35602;44.534;18.696;2022-07-23T00:18:58;28.50;48.90
49711;DHT22;35602;44.534;18.696;2022-07-23T00:24:01;28.50;49.00
49711;DHT22;35602;44.534;18.696;2022-07-23T00:29:02;28.40;48.90
49711;DHT22;35602;44.534;18.696;2022-07-23T00:34:03;28.40;48.90
49711;DHT22;35602;44.534;18.696;2022-07-23T00:39:04;28.40;48.90
49711;DHT22;35602;44.534;18.696;2022-07-23T00:44:25;28.40;48.90
49711;DHT22;35602;44.534;18.696;2022-07-23T00:49:29;28.40;48.90
49711;DHT22;35602;44.534;18.696;2022-07-23T00:54:30;28.40;49.00
49711;DHT22;35602;44.534;18.696;2022-07-23T00:59:31;28.40;49.00
49711;DHT22;35602;44.534;18.696;2022-07-23T01:04:32;28.50;49.10
49711;DHT22;35602;44.534;18.696;2022-07-23T01:09:33;28.50;49.10
49711;DHT22;35602;44.534;18.696;2022-07-23T01:14:34;28.40;49.10
49711;DHT22;35602;44.534;18.696;2022-07-23T01:19:35;28.40;49.70
49711;DHT22;35602;44.534;18.696;2022-07-23T01:24:35;28.40;49.80
49711;DHT22;35602;44.534;18.696;2022-07-23T01:29:36;28.40;49.20
49711;DHT22;35602;44.534;18.696;2022-07-23T01:34:37;28.40;49.10
49711;DHT22;35602;44.534;18.696;2022-07-23T01:39:38;28.40;49.10
49711;DHT22;35602;44.534;18.696;2022-07-23T01:44:39;28.40;49.10
49711;DHT22;35602;44.534;18.696;2022-07-23T01:49:40;28.40;49.30
49711;DHT22;35602;44.534;18.696;2022-07-23T01:54:41;28.40;49.30
49711;DHT22;35602;44.534;18.696;2022-07-23T01:59:42;28.40;49.30
49711;DHT22;35602;44.534;18.696;2022-07-23T02:04:43;28.40;49.30
49711;DHT22;35602;44.534;18.696;2022-07-23T02:09:44;28.40;49.40
49711;DHT22;35602;44.534;18.696;2022-07-23T02:14:45;28.40;49.30
49711;DHT22;35602;44.534;18.696;2022-07-23T02:19:45;28.40;50.00
49711;DHT22;35602;44.534;18.696;2022-07-23T02:24:46;28.40;49.40
49711;DHT22;35602;44.534;18.696;2022-07-23T02:29:47;28.40;49.30
49711;DHT22;35602;44.534;18.696;2022-07-23T02:34:48;28.40;49.40
49711;DHT22;35602;44.534;18.696;2022-07-23T02:39:49;28.40;49.40
49711;DHT22;35602;44.534;18.696;2022-07-23T02:44:51;28.40;49.40
49711;DHT22;35602;44.534;18.696;2022-07-23T02:49:51;28.40;49.40
49711;DHT22;35602;44.534;18.696;2022-07-23T02:54:52;28.40;49.30
49711;DHT22;35602;44.534;18.696;2022-07-23T02:59:53;28.40;49.30
49711;DHT22;35602;44.534;18.696;2022-07-23T03:04:54;28.40;49.20
49711;DHT22;35602;44.534;18.696;2022-07-23T03:09:55;28.40;49.20
49711;DHT22;35602;44.534;18.696;2022-07-23T03:14:55;28.40;49.10
49711;DHT22;35602;44.534;18.696;2022-07-23T03:19:56;28.40;49.10
49711;DHT22;35602;44.534;18.696;2022-07-23T03:24:57;28.40;49.10
49711;DHT22;35602;44.534;18.696;2022-07-23T03:29:58;28.40;49.00
49711;DHT22;35602;44.534;18.696;2022-07-23T03:35:00;28.40;49.00
49711;DHT22;35602;44.534;18.696;2022-07-23T03:40:01;28.40;48.90
49711;DHT22;35602;44.534;18.696;2022-07-23T03:45:01;28.40;48.90
49711;DHT22;35602;44.534;18.696;2022-07-23T03:50:03;28.40;48.90
49711;DHT22;35602;44.534;18.696;2022-07-23T03:55:05;28.40;48.80
49711;DHT22;35602;44.534;18.696;2022-07-23T04:00:10;28.40;48.80
49711;DHT22;35602;44.534;18.696;2022-07-23T04:05:11;28.40;48.80
49711;DHT22;35602;44.534;18.696;2022-07-23T04:10:12;28.40;48.80
49711;DHT22;35602;44.534;18.696;2022-07-23T04:15:13;28.30;48.70
49711;DHT22;35602;44.534;18.696;2022-07-23T04:20:14;28.40;48.90
49711;DHT22;35602;44.534;18.696;2022-07-23T04:25:14;28.30;48.80
49711;DHT22;35602;44.534;18.696;2022-07-23T04:30:17;28.30;48.70
49711;DHT22;35602;44.534;18.696;2022-07-23T04:35:18;28.30;48.60
49711;DHT22;35602;44.534;18.696;2022-07-23T04:40:18;28.30;48.80
49711;DHT22;35602;44.534;18.696;2022-07-23T04:45:19;28.30;49.10
49711;DHT22;35602;44.534;18.696;2022-07-23T04:50:20;28.30;48.70
49711;DHT22;35602;44.534;18.696;2022-07-23T04:55:22;28.30;48.60
49711;DHT22;35602;44.534;18.696;2022-07-23T05:00:23;28.30;48.60
49711;DHT22;35602;44.534;18.696;2022-07-23T05:05:23;28.30;48.50
49711;DHT22;35602;44.534;18.696;2022-07-23T05:10:24;28.30;48.50
49711;DHT22;35602;44.534;18.696;2022-07-23T05:15:25;28.30;48.60
49711;DHT22;35602;44.534;18.696;2022-07-23T05:20:26;28.30;48.60
49711;DHT22;35602;44.534;18.696;2022-07-23T05:25:27;28.30;48.50
49711;DHT22;35602;44.534;18.696;2022-07-23T05:30:28;28.30;48.50
49711;DHT22;35602;44.534;18.696;2022-07-23T05:35:29;28.30;48.50
49711;DHT22;35602;44.534;18.696;2022-07-23T05:40:30;28.30;48.50
49711;DHT22;35602;44.534;18.696;2022-07-23T05:45:31;28.20;48.40
49711;DHT22;35602;44.534;18.696;2022-07-23T05:50:32;28.30;49.10
49711;DHT22;35602;44.534;18.696;2022-07-23T05:55:33;28.20;48.40
49711;DHT22;35602;44.534;18.696;2022-07-23T06:00:34;28.30;48.50
49711;DHT22;35602;44.534;18.696;2022-07-23T06:05:35;28.30;48.40
49711;DHT22;35602;44.534;18.696;2022-07-23T06:10:36;28.30;48.40
49711;DHT22;35602;44.534;18.696;2022-07-23T06:15:36;28.30;48.50
49711;DHT22;35602;44.534;18.696;2022-07-23T06:20:37;28.20;48.40
49711;DHT22;35602;44.534;18.696;2022-07-23T06:25:38;28.30;48.50
49711;DHT22;35602;44.534;18.696;2022-07-23T06:30:39;28.30;48.40
49711;DHT22;35602;44.534;18.696;2022-07-23T06:35:40;28.30;48.40
49711;DHT22;35602;44.534;18.696;2022-07-23T06:40:41;28.30;48.40
49711;DHT22;35602;44.534;18.696;2022-07-23T06:45:42;28.30;48.40
49711;DHT22;35602;44.534;18.696;2022-07-23T06:50:43;28.30;48.40
49711;DHT22;35602;44.534;18.696;2022-07-23T06:55:43;28.30;48.40
49711;DHT22;35602;44.534;18.696;2022-07-23T07:00:44;28.30;48.40
49711;DHT22;35602;44.534;18.696;2022-07-23T07:05:45;28.30;48.40
49711;DHT22;35602;44.534;18.696;2022-07-23T07:10:46;28.30;48.40
49711;DHT22;35602;44.534;18.696;2022-07-23T07:15:47;28.30;48.30
49711;DHT22;35602;44.534;18.696;2022-07-23T07:20:49;28.30;48.30
49711;DHT22;35602;44.534;18.696;2022-07-23T07:25:50;28.30;48.30
49711;DHT22;35602;44.534;18.696;2022-07-23T07:30:51;28.30;48.30
49711;DHT22;35602;44.534;18.696;2022-07-23T07:35:51;28.30;48.30
49711;DHT22;35602;44.534;18.696;2022-07-23T07:40:52;28.30;48.40
49711;DHT22;35602;44.534;18.696;2022-07-23T07:45:53;28.30;48.40
49711;DHT22;35602;44.534;18.696;2022-07-23T07:50:54;28.30;48.40
49711;DHT22;35602;44.534;18.696;2022-07-23T07:55:55;28.30;48.40
49711;DHT22;35602;44.534;18.696;2022-07-23T08:00:55;28.30;48.10
49711;DHT22;35602;44.534;18.696;2022-07-23T08:05:56;28.30;48.40
49711;DHT22;35602;44.534;18.696;2022-07-23T08:10:57;28.30;48.40
49711;DHT22;35602;44.534;18.696;2022-07-23T08:15:58;28.30;48.40
49711;DHT22;35602;44.534;18.696;2022-07-23T08:20:58;28.30;48.40
49711;DHT22;35602;44.534;18.696;2022-07-23T08:25:59;28.40;48.50
49711;DHT22;35602;44.534;18.696;2022-07-23T08:31:01;28.30;48.40
49711;DHT22;35602;44.534;18.696;2022-07-23T08:36:03;28.40;48.40
49711;DHT22;35602;44.534;18.696;2022-07-23T08:41:07;28.40;48.40
49711;DHT22;35602;44.534;18.696;2022-07-23T08:46:08;28.30;48.40
49711;DHT22;35602;44.534;18.696;2022-07-23T08:51:09;28.40;48.40
49711;DHT22;35602;44.534;18.696;2022-07-23T08:56:11;28.30;48.40
49711;DHT22;35602;44.534;18.696;2022-07-23T09:01:12;28.40;48.40
49711;DHT22;35602;44.534;18.696;2022-07-23T09:06:12;28.40;48.50
49711;DHT22;35602;44.534;18.696;2022-07-23T09:11:16;28.40;48.40
49711;DHT22;35602;44.534;18.696;2022-07-23T09:21:40;28.40;48.30
49711;DHT22;35602;44.534;18.696;2022-07-23T09:26:46;28.40;48.30
49711;DHT22;35602;44.534;18.696;2022-07-23T09:31:55;28.40;48.30
49711;DHT22;35602;44.534;18.696;2022-07-23T09:36:58;28.40;48.20
49711;DHT22;35602;44.534;18.696;2022-07-23T09:42:25;28.40;48.20
49711;DHT22;35602;44.534;18.696;2022-07-23T09:47:29;28.40;48.30
49711;DHT22;35602;44.534;18.696;2022-07-23T09:52:34;28.40;48.20
49711;DHT22;35602;44.534;18.696;2022-07-23T09:57:35;28.40;48.20
49711;DHT22;35602;44.534;18.696;2022-07-23T10:02:36;28.40;48.20
49711;DHT22;35602;44.534;18.696;2022-07-23T10:07:39;28.40;48.10
49711;DHT22;35602;44.534;18.696;2022-07-23T10:12:43;28.50;48.20
49711;DHT22;35602;44.534;18.696;2022-07-23T10:21:24;28.50;48.10
49711;DHT22;35602;44.534;18.696;2022-07-23T10:26:41;28.50;48.10
49711;DHT22;35602;44.534;18.696;2022-07-23T10:32:07;28.50;48.10
49711;DHT22;35602;44.534;18.696;2022-07-23T10:37:21;28.50;48.10
49711;DHT22;35602;44.534;18.696;2022-07-23T10:42:33;28.50;48.10
49711;DHT22;35602;44.534;18.696;2022-07-23T10:47:34;28.50;48.00
49711;DHT22;35602;44.534;18.696;2022-07-23T10:58:46;28.50;48.00
49711;DHT22;35602;44.534;18.696;2022-07-23T11:03:56;28.50;48.00
49711;DHT22;35602;44.534;18.696;2022-07-23T11:09:27;28.50;47.90
49711;DHT22;35602;44.534;18.696;2022-07-23T11:15:13;28.50;47.90
49711;DHT22;35602;44.534;18.696;2022-07-23T11:20:20;28.60;47.90
49711;DHT22;35602;44.534;18.696;2022-07-23T11:25:33;28.50;47.90
49711;DHT22;35602;44.534;18.696;2022-07-23T11:30:42;28.50;47.80
49711;DHT22;35602;44.534;18.696;2022-07-23T11:35:59;28.60;47.90
49711;DHT22;35602;44.534;18.696;2022-07-23T11:41:01;28.50;47.70
49711;DHT22;35602;44.534;18.696;2022-07-23T11:46:02;28.60;47.90
49711;DHT22;35602;44.534;18.696;2022-07-23T11:51:03;28.60;47.80
49711;DHT22;35602;44.534;18.696;2022-07-23T11:56:08;28.60;47.70
49711;DHT22;35602;44.534;18.696;2022-07-23T12:01:10;28.60;47.70
49711;DHT22;35602;44.534;18.696;2022-07-23T12:06:11;28.60;47.70
49711;DHT22;35602;44.534;18.696;2022-07-23T12:11:12;28.60;47.70
49711;DHT22;35602;44.534;18.696;2022-07-23T12:16:13;28.60;48.20
49711;DHT22;35602;44.534;18.696;2022-07-23T12:21:14;28.60;47.60
49711;DHT22;35602;44.534;18.696;2022-07-23T12:26:15;28.60;47.60
49711;DHT22;35602;44.534;18.696;2022-07-23T12:31:26;28.60;47.60
49711;DHT22;35602;44.534;18.696;2022-07-23T12:36:37;28.60;47.60
49711;DHT22;35602;44.534;18.696;2022-07-23T12:41:51;28.60;47.50
49711;DHT22;35602;44.534;18.696;2022-07-23T12:46:56;28.60;47.50
49711;DHT22;35602;44.534;18.696;2022-07-23T12:51:57;28.60;47.40
49711;DHT22;35602;44.534;18.696;2022-07-23T12:56:58;28.60;47.40
49711;DHT22;35602;44.534;18.696;2022-07-23T13:01:59;28.70;47.40
49711;DHT22;35602;44.534;18.696;2022-07-23T13:07:00;28.70;46.80
49711;DHT22;35602;44.534;18.696;2022-07-23T13:12:02;28.70;47.60
49711;DHT22;35602;44.534;18.696;2022-07-23T13:17:03;28.70;47.30
49711;DHT22;35602;44.534;18.696;2022-07-23T13:22:03;28.70;47.30
49711;DHT22;35602;44.534;18.696;2022-07-23T13:27:04;28.70;47.20
49711;DHT22;35602;44.534;18.696;2022-07-23T13:32:07;28.70;47.20
49711;DHT22;35602;44.534;18.696;2022-07-23T13:37:08;28.70;47.20
49711;DHT22;35602;44.534;18.696;2022-07-23T13:42:09;28.70;47.00
49711;DHT22;35602;44.534;18.696;2022-07-23T13:47:09;28.70;47.00
49711;DHT22;35602;44.534;18.696;2022-07-23T13:52:11;28.70;47.60
49711;DHT22;35602;44.534;18.696;2022-07-23T13:57:11;28.70;46.90
49711;DHT22;35602;44.534;18.696;2022-07-23T14:02:15;28.80;47.00
49711;DHT22;35602;44.534;18.696;2022-07-23T14:07:17;28.80;47.00
49711;DHT22;35602;44.534;18.696;2022-07-23T14:12:18;28.70;46.90
49711;DHT22;35602;44.534;18.696;2022-07-23T14:17:19;28.80;47.00
49711;DHT22;35602;44.534;18.696;2022-07-23T14:22:20;28.80;46.90
49711;DHT22;35602;44.534;18.696;2022-07-23T14:27:21;28.80;46.90
49711;DHT22;35602;44.534;18.696;2022-07-23T14:32:22;28.80;47.40
49711;DHT22;35602;44.534;18.696;2022-07-23T14:37:23;28.80;46.80
49711;DHT22;35602;44.534;18.696;2022-07-23T14:42:26;28.80;46.70
49711;DHT22;35602;44.534;18.696;2022-07-23T14:47:26;28.80;46.70
49711;DHT22;35602;44.534;18.696;2022-07-23T14:52:27;28.80;46.60
49711;DHT22;35602;44.534;18.696;2022-07-23T14:57:28;28.80;46.70
49711;DHT22;35602;44.534;18.696;2022-07-23T15:02:30;28.80;46.60
49711;DHT22;35602;44.534;18.696;2022-07-23T15:07:31;28.80;46.70
49711;DHT22;35602;44.534;18.696;2022-07-23T15:12:31;28.80;46.50
49711;DHT22;35602;44.534;18.696;2022-07-23T15:17:33;28.80;46.50
49711;DHT22;35602;44.534;18.696;2022-07-23T15:22:34;28.90;46.60
49711;DHT22;35602;44.534;18.696;2022-07-23T15:27:35;28.90;46.60
49711;DHT22;35602;44.534;18.696;2022-07-23T15:32:36;28.90;46.60
49711;DHT22;35602;44.534;18.696;2022-07-23T15:37:37;28.90;46.60
49711;DHT22;35602;44.534;18.696;2022-07-23T15:42:37;28.90;46.50
49711;DHT22;35602;44.534;18.696;2022-07-23T15:47:38;28.90;46.60
49711;DHT22;35602;44.534;18.696;2022-07-23T15:52:41;28.90;46.70
49711;DHT22;35602;44.534;18.696;2022-07-23T15:57:42;28.90;46.60
49711;DHT22;35602;44.534;18.696;2022-07-23T16:02:43;28.90;46.50
49711;DHT22;35602;44.534;18.696;2022-07-23T16:07:44;28.90;46.60
49711;DHT22;35602;44.534;18.696;2022-07-23T16:12:44;28.90;46.70
49711;DHT22;35602;44.534;18.696;2022-07-23T16:17:45;28.90;46.70
49711;DHT22;35602;44.534;18.696;2022-07-23T16:22:47;28.90;46.60
49711;DHT22;35602;44.534;18.696;2022-07-23T16:27:48;28.90;46.60
49711;DHT22;35602;44.534;18.696;2022-07-23T16:32:49;28.90;46.60
49711;DHT22;35602;44.534;18.696;2022-07-23T16:37:51;28.90;46.60
49711;DHT22;35602;44.534;18.696;2022-07-23T16:42:51;28.90;46.60
49711;DHT22;35602;44.534;18.696;2022-07-23T16:47:52;28.90;46.60
49711;DHT22;35602;44.534;18.696;2022-07-23T16:52:53;28.90;46.60
49711;DHT22;35602;44.534;18.696;2022-07-23T16:57:54;28.90;46.70
49711;DHT22;35602;44.534;18.696;2022-07-23T17:02:55;28.90;46.60
49711;DHT22;35602;44.534;18.696;2022-07-23T17:07:56;28.90;46.50
49711;DHT22;35602;44.534;18.696;2022-07-23T17:12:57;28.90;46.60
49711;DHT22;35602;44.534;18.696;2022-07-23T17:18:01;28.90;46.60
49711;DHT22;35602;44.534;18.696;2022-07-23T17:23:01;29.00;46.60
49711;DHT22;35602;44.534;18.696;2022-07-23T17:28:03;29.00;46.60
49711;DHT22;35602;44.534;18.696;2022-07-23T17:33:03;29.00;46.70
49711;DHT22;35602;44.534;18.696;2022-07-23T17:38:04;28.90;46.60
49711;DHT22;35602;44.534;18.696;2022-07-23T17:43:05;29.00;46.60
49711;DHT22;35602;44.534;18.696;2022-07-23T17:48:06;29.00;46.70
49711;DHT22;35602;44.534;18.696;2022-07-23T17:53:07;29.00;46.60
49711;DHT22;35602;44.534;18.696;2022-07-23T17:58:07;29.00;46.60
49711;DHT22;35602;44.534;18.696;2022-07-23T18:03:08;29.00;47.10
49711;DHT22;35602;44.534;18.696;2022-07-23T18:08:09;29.00;46.60
49711;DHT22;35602;44.534;18.696;2022-07-23T18:13:10;29.00;46.70
49711;DHT22;35602;44.534;18.696;2022-07-23T18:18:11;29.00;46.70
49711;DHT22;35602;44.534;18.696;2022-07-23T18:23:14;29.00;46.70
49711;DHT22;35602;44.534;18.696;2022-07-23T18:28:15;29.00;46.70
49711;DHT22;35602;44.534;18.696;2022-07-23T18:33:16;29.00;46.70
49711;DHT22;35602;44.534;18.696;2022-07-23T18:38:17;29.00;46.80
49711;DHT22;35602;44.534;18.696;2022-07-23T18:43:18;29.00;47.40
49711;DHT22;35602;44.534;18.696;2022-07-23T18:48:19;29.00;46.80
49711;DHT22;35602;44.534;18.696;2022-07-23T18:53:20;29.00;46.90
49711;DHT22;35602;44.534;18.696;2022-07-23T18:58:20;29.00;46.90
49711;DHT22;35602;44.534;18.696;2022-07-23T19:03:21;29.00;46.90
49711;DHT22;35602;44.534;18.696;2022-07-23T19:08:22;29.00;47.00
49711;DHT22;35602;44.534;18.696;2022-07-23T19:13:23;29.00;47.00
49711;DHT22;35602;44.534;18.696;2022-07-23T19:18:24;29.00;47.00
49711;DHT22;35602;44.534;18.696;2022-07-23T19:23:25;29.00;47.10
49711;DHT22;35602;44.534;18.696;2022-07-23T19:28:26;29.00;47.20
49711;DHT22;35602;44.534;18.696;2022-07-23T19:33:27;29.00;47.20
49711;DHT22;35602;44.534;18.696;2022-07-23T19:38:28;29.00;47.20
49711;DHT22;35602;44.534;18.696;2022-07-23T19:43:29;29.00;47.30
49711;DHT22;35602;44.534;18.696;2022-07-23T19:48:30;29.00;47.30
49711;DHT22;35602;44.534;18.696;2022-07-23T19:53:30;29.00;47.30
49711;DHT22;35602;44.534;18.696;2022-07-23T19:58:34;29.00;47.40
49711;DHT22;35602;44.534;18.696;2022-07-23T20:03:35;29.00;47.40
49711;DHT22;35602;44.534;18.696;2022-07-23T20:08:36;29.00;47.40
49711;DHT22;35602;44.534;18.696;2022-07-23T20:13:37;29.00;47.40
49711;DHT22;35602;44.534;18.696;2022-07-23T20:18:37;29.00;47.40
49711;DHT22;35602;44.534;18.696;2022-07-23T20:23:38;29.00;47.50
49711;DHT22;35602;44.534;18.696;2022-07-23T20:28:42;29.00;47.50
49711;DHT22;35602;44.534;18.696;2022-07-23T20:33:43;29.00;47.50
49711;DHT22;35602;44.534;18.696;2022-07-23T20:38:44;29.00;47.60
49711;DHT22;35602;44.534;18.696;2022-07-23T20:43:45;29.00;47.50
49711;DHT22;35602;44.534;18.696;2022-07-23T20:48:46;29.00;47.50
49711;DHT22;35602;44.534;18.696;2022-07-23T20:53:47;29.00;47.60
49711;DHT22;35602;44.534;18.696;2022-07-23T20:58:48;29.00;47.60
49711;DHT22;35602;44.534;18.696;2022-07-23T21:03:48;29.00;47.60
49711;DHT22;35602;44.534;18.696;2022-07-23T21:08:49;29.00;47.60
49711;DHT22;35602;44.534;18.696;2022-07-23T21:13:50;29.00;47.60
49711;DHT22;35602;44.534;18.696;2022-07-23T21:18:51;29.00;48.30
49711;DHT22;35602;44.534;18.696;2022-07-23T21:23:52;29.00;47.70
49711;DHT22;35602;44.534;18.696;2022-07-23T21:28:53;29.00;47.70
49711;DHT22;35602;44.534;18.696;2022-07-23T21:33:54;29.00;47.80
49711;DHT22;35602;44.534;18.696;2022-07-23T21:38:54;29.00;47.80
49711;DHT22;35602;44.534;18.696;2022-07-23T21:43:56;29.00;47.80
49711;DHT22;35602;44.534;18.696;2022-07-23T21:48:57;29.00;47.80
49711;DHT22;35602;44.534;18.696;2022-07-23T21:53:58;29.00;47.90
49711;DHT22;35602;44.534;18.696;2022-07-23T21:58:59;29.00;47.90
49711;DHT22;35602;44.534;18.696;2022-07-23T22:04:00;29.00;48.00
49711;DHT22;35602;44.534;18.696;2022-07-23T22:09:00;29.00;48.00
49711;DHT22;35602;44.534;18.696;2022-07-23T22:14:01;29.00;48.00
49711;DHT22;35602;44.534;18.696;2022-07-23T22:19:02;29.00;48.10
49711;DHT22;35602;44.534;18.696;2022-07-23T22:24:03;29.00;48.00
49711;DHT22;35602;44.534;18.696;2022-07-23T22:29:04;29.00;48.10
49711;DHT22;35602;44.534;18.696;2022-07-23T22:34:05;29.00;48.10
49711;DHT22;35602;44.534;18.696;2022-07-23T22:39:06;29.00;48.10
49711;DHT22;35602;44.534;18.696;2022-07-23T22:44:07;29.00;48.10
49711;DHT22;35602;44.534;18.696;2022-07-23T22:49:08;29.00;48.20
49711;DHT22;35602;44.534;18.696;2022-07-23T22:54:08;29.00;48.20
49711;DHT22;35602;44.534;18.696;2022-07-23T22:59:09;29.00;48.20
49711;DHT22;35602;44.534;18.696;2022-07-23T23:04:12;29.00;48.20
49711;DHT22;35602;44.534;18.696;2022-07-23T23:09:13;29.00;48.40
49711;DHT22;35602;44.534;18.696;2022-07-23T23:14:14;29.00;48.30
49711;DHT22;35602;44.534;18.696;2022-07-23T23:19:15;29.00;48.30
49711;DHT22;35602;44.534;18.696;2022-07-23T23:24:16;29.00;48.40
49711;DHT22;35602;44.534;18.696;2022-07-23T23:29:16;29.00;49.10
49711;DHT22;35602;44.534;18.696;2022-07-23T23:34:17;29.00;48.40
49711;DHT22;35602;44.534;18.696;2022-07-23T23:39:18;29.00;48.50
49711;DHT22;35602;44.534;18.696;2022-07-23T23:44:19;29.00;48.60
49711;DHT22;35602;44.534;18.696;2022-07-23T23:49:21;29.00;48.50
49711;DHT22;35602;44.534;18.696;2022-07-23T23:54:22;29.00;48.70
49711;DHT22;35602;44.534;18.696;2022-07-23T23:59:23;29.00;48.60
